Aérodrome :
LOGIN :

S'inscrire | Disclaimer

   EN    FR    IT 

 










Légende :    VFR   VFR Marginal   IFR   IFR Intensif   IFR Très Intensif
Visi : 
Plafond : 
>= 8 km
>= 3000ft
5 à 8 km
1000 à 3000 ft
1500m à 5 km
500 à 1000 ft
800 à 1500m
200 à 500 ft
< 800m
< 200 ft
Symboles :   Orages  Brouillard  Fortes neiges  Fortes précipitations  Vent > 20 kt
SIGMETs :   Divers  Orages  Givrage  Turbulence  Onde Orograph.  Cendres Volcan.






- Altitude de l'aérodrome : 648 ft
- Code IATA : INI


LYNI - Nis Constantine

DERNIER METAR :
  • 150200Z VRB02KT 6000 0900W R29/P2000N R11/1900D PRFG NSC 06/06 Q1014 NOSIG

METARs EXPIRÉS :
  • 150130Z VRB01KT 6000 0900W R29/P2000N R11/0900U PRFG NSC 07/06 Q1013 NOSIG
  • 150100Z VRB02KT 7000 MIFG NSC 07/06 Q1013 NOSIG
  • 150030Z 15003KT 110V180 8000 MIFG NSC 07/07 Q1013 NOSIG
  • 150000Z VRB02KT 8000 MIFG NSC 08/06 Q1013 NOSIG
  • 142330Z 05003KT 8000 MIFG NSC 08/07 Q1013 NOSIG

TAF TAF LYNI
Valide du 15 à 00h jusqu'au 16 à 00h UTC


142300Z 1500/1524 14005KT 5000 BR NSC TX19/1513Z TN06/1505Z
TEMPO 1504/1507 3000 BR BKN010
PROB30
TEMPO 1505/1507 0600 FG
BECMG 1508/1510 15010KT CAVOK



MET'MAP, la Météo Aéronautique d'un coup d'oeil ! - Copyright ORBIFLY Décembre 2007 - Disclaimer

ORBIFLY MET'MAP TEAM :

Programmation & Développement : Alexandra Zaïnal
Conception & Développement : Baudouin d'Aumeries
Co-Programmation & Développement : Marc-Olivier Méhu
Soutien technique & logistique : Manuel Goepfert

Contact : metmap@orbifly.com




SOURCES & CREDITS :

   NOAA